Time;durP1;ratioP1;P1;durP2;ratioP2;P2;SDS_P1;SDS_P2;PMS_P1;PMS_P2;Temp;Humidity;BMP_temperature;BMP_pressure;BME280_temperature;BME280_humidity;BME280_pressure;Samples;Min_cycle;Max_cycle;Signal;HPM_P1;HPM_P2
2022/08/08 00:06:07;;;;;;;6.40;4.20;;;;;;;12.41;68.38;99281.09;433148;1271;109110;-40
2022/08/08 00:16:23;;;;;;;5.80;3.80;;;;;;;12.42;68.53;99271.83;433130;1271;98212;-40
2022/08/08 00:26:29;;;;;;;6.40;4.70;;;;;;;12.42;68.90;99271.20;433088;1270;111089;-40
2022/08/08 00:36:46;;;;;;;5.50;4.90;;;;;;;12.28;68.86;99271.35;433050;1270;109952;-42
2022/08/08 00:47:15;;;;;;;8.70;4.80;;;;;;;12.05;69.16;99268.55;432842;1270;108824;-41
2022/08/08 00:57:59;;;;;;;8.10;3.90;;;;;;;12.01;69.37;99262.73;433167;1270;98082;-41
2022/08/08 01:08:27;;;;;;;10.40;4.30;;;;;;;12.09;69.76;99255.47;433462;1261;108760;-41
2022/08/08 01:18:58;;;;;;;13.70;6.90;;;;;;;11.99;69.59;99258.06;433086;1271;98065;-41
2022/08/08 01:29:43;;;;;;;8.70;6.40;;;;;;;11.78;70.09;99256.98;433157;1270;111106;-40
2022/08/08 01:40:26;;;;;;;10.20;5.80;;;;;;;11.90;70.64;99261.20;433203;1271;108830;-40
2022/08/08 01:50:35;;;;;;;8.50;6.50;;;;;;;11.75;70.29;99263.57;432907;1271;97891;-40
2022/08/08 02:00:43;;;;;;;10.90;5.90;;;;;;;11.62;70.73;99266.63;433201;1271;108759;-42
2022/08/08 02:10:57;;;;;;;9.70;6.20;;;;;;;11.68;70.89;99266.27;433022;1271;97903;-41
2022/08/08 02:31:43;;;;;;;11.50;5.50;;;;;;;11.51;71.36;99272.86;432929;1271;109783;-40
2022/08/08 02:42:42;;;;;;;6.80;5.00;;;;;;;11.38;71.54;99284.23;433115;1271;97809;-41
2022/08/08 03:03:29;;;;;;;7.70;5.10;;;;;;;11.42;72.02;99289.86;432994;1271;108769;-41
2022/08/08 03:14:33;;;;;;;11.20;5.70;;;;;;;11.44;71.95;99292.26;433020;1271;97475;-42
2022/08/08 03:25:00;;;;;;;9.70;5.90;;;;;;;11.37;72.17;99287.02;432457;1271;108687;-41
2022/08/08 03:35:09;;;;;;;8.20;6.00;;;;;;;11.29;72.32;99289.69;432793;1271;108491;-41
2022/08/08 03:45:22;;;;;;;9.50;5.40;;;;;;;11.37;72.37;99293.73;432973;1271;97894;-41
2022/08/08 03:55:52;;;;;;;8.70;5.20;;;;;;;11.50;72.42;99294.34;432765;1270;109009;-41
2022/08/08 04:06:04;;;;;;;7.90;6.00;;;;;;;11.55;72.45;99296.56;433067;1269;97945;-41
2022/08/08 04:16:12;;;;;;;10.90;6.40;;;;;;;11.73;72.66;99301.28;432888;1271;111091;-41
2022/08/08 04:26:24;;;;;;;12.20;6.10;;;;;;;11.83;72.35;99307.71;432702;1271;108720;-41
2022/08/08 04:46:37;;;;;;;10.80;6.70;;;;;;;12.74;72.61;99317.17;432944;1271;111125;-41
2022/08/08 04:56:45;;;;;;;16.00;10.70;;;;;;;13.61;72.22;99319.78;432463;1271;108624;-41
2022/08/08 05:06:54;;;;;;;6.40;5.70;;;;;;;14.24;71.39;99324.73;432485;1270;97467;-41
2022/08/08 05:17:01;;;;;;;9.60;6.40;;;;;;;15.19;70.79;99334.05;432943;1271;111118;-42
2022/08/08 05:27:14;;;;;;;8.20;5.00;;;;;;;15.43;69.90;99337.09;431268;1270;1399522;-40
2022/08/08 05:37:26;;;;;;;9.00;5.70;;;;;;;15.65;69.90;99341.45;432405;1270;108439;-40
2022/08/08 05:47:53;;;;;;;6.70;5.30;;;;;;;16.15;69.65;99348.67;432588;1270;98556;-41
2022/08/08 05:58:07;;;;;;;7.40;4.10;;;;;;;17.14;68.85;99350.63;432373;1270;111310;-41
2022/08/08 06:18:41;;;;;;;8.30;3.50;;;;;;;19.11;67.32;99356.61;433059;1271;108317;-41
2022/08/08 06:28:48;;;;;;;4.30;2.50;;;;;;;20.41;65.95;99359.47;432885;1271;97846;-39
2022/08/08 06:39:01;;;;;;;4.70;2.60;;;;;;;20.58;63.70;99363.16;433183;1271;110952;-40
2022/08/08 06:49:13;;;;;;;3.30;1.40;;;;;;;21.09;62.30;99371.11;433374;1271;108549;-40
2022/08/08 06:59:20;;;;;;;3.90;1.40;;;;;;;20.72;60.52;99371.84;433070;1271;97816;-40
2022/08/08 07:09:34;;;;;;;4.40;1.40;;;;;;;20.40;59.33;99363.73;433162;1271;111618;-40
2022/08/08 07:20:07;;;;;;;2.40;1.60;;;;;;;20.80;58.38;99371.31;432546;1271;108850;-40
2022/08/08 07:30:17;;;;;;;3.40;1.50;;;;;;;21.07;56.05;99376.45;432216;1271;97306;-41
2022/08/08 07:40:33;;;;;;;3.20;1.40;;;;;;;21.24;54.93;99377.90;433123;1271;97895;-41
2022/08/08 07:50:43;;;;;;;4.70;1.20;;;;;;;21.26;52.39;99377.34;433066;1269;111266;-41
2022/08/08 08:00:51;;;;;;;2.50;1.10;;;;;;;21.27;51.31;99374.65;433087;1271;108790;-41
2022/08/08 08:10:58;;;;;;;2.80;1.30;;;;;;;21.74;50.49;99369.00;432634;1271;108816;-42
2022/08/08 08:21:04;;;;;;;3.60;1.00;;;;;;;22.07;50.27;99370.52;433177;1270;97801;-40
2022/08/08 08:31:25;;;;;;;2.90;0.90;;;;;;;22.39;49.39;99376.16;432954;1271;111215;-39
2022/08/08 08:41:34;;;;;;;2.00;0.90;;;;;;;22.28;46.72;99384.20;433000;1271;108815;-41
2022/08/08 08:51:43;;;;;;;1.70;0.80;;;;;;;21.83;46.41;99382.76;432298;1271;97909;-40
2022/08/08 09:01:58;;;;;;;1.40;0.90;;;;;;;22.11;45.73;99387.72;432569;1271;110327;-40
2022/08/08 09:12:10;;;;;;;4.00;1.10;;;;;;;21.86;45.39;99385.58;433293;1271;108574;-41
2022/08/08 09:22:18;;;;;;;2.60;1.20;;;;;;;21.80;46.28;99380.59;432905;1271;97496;-41
2022/08/08 09:32:36;;;;;;;3.30;0.90;;;;;;;22.66;45.97;99375.11;432876;1271;111368;-41
2022/08/08 09:42:46;;;;;;;1.90;0.90;;;;;;;23.22;44.94;99377.10;433198;1271;108695;-40
2022/08/08 09:52:58;;;;;;;2.00;0.70;;;;;;;23.04;44.48;99377.08;432743;1271;109039;-40
2022/08/08 10:03:22;;;;;;;4.00;1.00;;;;;;;23.16;44.91;99372.83;432683;1271;97488;-41
2022/08/08 10:13:31;;;;;;;1.90;0.90;;;;;;;22.57;43.45;99382.11;432161;1270;110714;-40
2022/08/08 10:23:49;;;;;;;2.40;0.80;;;;;;;22.09;44.71;99370.87;432302;1271;109319;-41
2022/08/08 10:34:09;;;;;;;2.00;0.90;;;;;;;21.85;44.42;99368.31;432180;1271;98579;-40
2022/08/08 10:44:24;;;;;;;4.30;0.70;;;;;;;22.22;44.49;99360.54;432313;1270;110498;-40
2022/08/08 10:54:32;;;;;;;1.70;1.10;;;;;;;22.33;44.35;99359.66;432794;1270;108646;-40
2022/08/08 11:04:51;;;;;;;1.40;1.00;;;;;;;22.83;44.23;99353.73;432753;1271;108089;-41
2022/08/08 11:15:01;;;;;;;2.40;0.80;;;;;;;23.17;42.97;99352.91;432960;1270;96676;-39
2022/08/08 11:35:19;;;;;;;1.70;0.90;;;;;;;23.49;42.71;99345.94;432830;1271;107416;-40
2022/08/08 11:45:43;;;;;;;2.00;0.70;;;;;;;23.67;42.36;99350.98;432727;1271;108664;-40
2022/08/08 11:56:18;;;;;;;1.40;0.80;;;;;;;23.18;42.59;99347.81;432720;1271;97888;-40
2022/08/08 12:06:25;;;;;;;0.80;0.70;;;;;;;22.83;42.53;99349.86;432872;1271;110727;-40
2022/08/08 12:16:33;;;;;;;1.90;0.80;;;;;;;22.85;42.78;99345.48;432763;1271;108867;-40
2022/08/08 12:26:57;;;;;;;2.80;1.10;;;;;;;23.03;42.61;99339.00;432644;1271;109060;-40
2022/08/08 12:37:05;;;;;;;2.70;0.80;;;;;;;23.33;43.03;99339.91;432631;1271;98134;-40
2022/08/08 12:47:12;;;;;;;1.00;0.80;;;;;;;23.68;42.65;99337.63;432639;1271;109219;-41
2022/08/08 12:57:21;;;;;;;2.30;1.10;;;;;;;23.04;41.60;99339.23;432312;1271;108879;-41
2022/08/08 13:18:00;;;;;;;3.20;1.00;;;;;;;23.45;42.24;99312.70;432634;1271;97764;-40
2022/08/08 13:28:30;;;;;;;1.70;1.10;;;;;;;23.69;41.66;99310.34;432539;1270;111266;-40
2022/08/08 13:38:36;;;;;;;0.80;0.80;;;;;;;23.49;41.11;99304.49;432423;1271;108797;-38
2022/08/08 13:48:48;;;;;;;2.90;0.90;;;;;;;23.15;41.13;99300.38;432615;1271;97487;-41
2022/08/08 13:59:15;;;;;;;1.90;1.00;;;;;;;23.08;41.43;99305.96;432689;1271;97595;-40
2022/08/08 14:09:22;;;;;;;1.40;1.00;;;;;;;22.96;40.83;99300.65;432702;1271;110630;-40
2022/08/08 14:19:50;;;;;;;4.40;1.10;;;;;;;23.13;41.09;99305.17;432815;1271;107462;-40
2022/08/08 14:30:16;;;;;;;2.20;1.10;;;;;;;23.51;40.91;99308.24;432948;1271;97893;-40
2022/08/08 14:50:37;;;;;;;4.70;1.40;;;;;;;22.94;41.14;99315.36;432643;1271;110004;-41
2022/08/08 15:00:46;;;;;;;4.20;1.00;;;;;;;23.13;41.37;99299.88;432896;1270;108705;-40
2022/08/08 15:10:53;;;;;;;2.50;1.10;;;;;;;23.33;40.95;99308.92;433095;1271;107578;-40
2022/08/08 15:21:00;;;;;;;1.10;0.80;;;;;;;23.25;40.84;99308.38;432998;1271;98028;-40
2022/08/08 15:31:09;;;;;;;3.60;0.90;;;;;;;23.20;41.27;99307.43;433063;1271;110062;-40
2022/08/08 16:02:00;;;;;;;3.00;1.40;;;;;;;22.82;41.12;99306.73;433099;1270;110040;-39
2022/08/08 16:12:09;;;;;;;3.10;1.30;;;;;;;22.70;41.27;99305.12;433004;1271;110760;-39
2022/08/08 16:22:37;;;;;;;3.70;1.60;;;;;;;22.65;41.46;99308.96;432992;1270;109395;-40
2022/08/08 16:32:48;;;;;;;2.60;1.50;;;;;;;22.45;41.50;99308.77;433314;1270;97948;-40
2022/08/08 16:42:54;;;;;;;;;;;;;;;22.19;42.05;99306.48;433086;1271;111263;-39
2022/08/08 16:53:01;;;;;;;4.30;1.40;;;;;;;21.94;42.86;99307.84;432992;1271;108911;-40
2022/08/08 17:03:28;;;;;;;3.40;1.60;;;;;;;21.90;43.27;99305.95;431972;1271;108567;-39
2022/08/08 17:13:55;;;;;;;2.60;1.40;;;;;;;21.83;43.45;99312.41;433130;1270;97880;-41
2022/08/08 17:24:08;;;;;;;6.90;1.60;;;;;;;21.70;43.52;99320.65;431605;1270;1968660;-41
2022/08/08 17:34:34;;;;;;;2.70;1.40;;;;;;;21.49;43.86;99324.37;432969;1271;108961;-42
2022/08/08 17:45:01;;;;;;;3.30;1.50;;;;;;;21.21;44.34;99333.71;433016;1270;98558;-42
2022/08/08 18:05:38;;;;;;;4.30;1.50;;;;;;;20.51;46.26;99343.73;433132;1271;111049;-41
2022/08/08 18:15:56;;;;;;;4.70;1.60;;;;;;;19.96;47.38;99352.48;433238;1270;109022;-41
2022/08/08 18:26:10;;;;;;;4.00;2.10;;;;;;;19.32;48.32;99362.88;433231;1271;98133;-41
2022/08/08 18:36:19;;;;;;;2.50;1.50;;;;;;;18.80;49.21;99376.77;433224;1271;97474;-41
2022/08/08 18:46:31;;;;;;;4.60;1.90;;;;;;;18.32;50.29;99384.03;432877;1270;111279;-39
2022/08/08 18:56:58;;;;;;;8.30;2.10;;;;;;;17.87;51.07;99397.40;433143;1270;108884;-40
2022/08/08 19:07:05;;;;;;;10.50;4.80;;;;;;;17.46;52.16;99406.50;433027;1271;97951;-42
2022/08/08 19:27:41;;;;;;;30.20;11.80;;;;;;;16.99;54.31;99404.52;432918;1271;109024;-41
2022/08/08 19:38:06;;;;;;;24.20;11.00;;;;;;;16.77;55.19;99407.83;433174;1270;97490;-40
2022/08/08 19:48:17;;;;;;;22.80;12.10;;;;;;;16.47;56.01;99411.35;433029;1271;111211;-40
2022/08/08 19:58:37;;;;;;;22.50;10.80;;;;;;;16.15;56.67;99421.58;432999;1271;109395;-39
2022/08/08 20:08:45;;;;;;;27.50;12.20;;;;;;;16.02;57.49;99421.06;433309;1270;97507;-39
2022/08/08 20:18:55;;;;;;;50.70;18.70;;;;;;;15.89;58.37;99426.29;433089;1271;111300;-39
2022/08/08 20:29:05;;;;;;;69.80;28.20;;;;;;;15.84;59.15;99423.75;433344;1271;109089;-39
2022/08/08 20:39:14;;;;;;;57.60;24.40;;;;;;;15.50;59.72;99425.65;433343;1271;96912;-39
2022/08/08 20:49:25;;;;;;;57.00;23.30;;;;;;;15.32;60.25;99431.63;432997;1270;111018;-39
2022/08/08 20:59:46;;;;;;;43.90;19.20;;;;;;;15.22;60.77;99429.39;433122;1270;108799;-40
2022/08/08 21:09:53;;;;;;;43.40;18.40;;;;;;;15.14;61.13;99430.09;433296;1271;97773;-44
2022/08/08 21:20:13;;;;;;;41.30;17.80;;;;;;;15.11;62.10;99430.14;432656;1270;108890;-41
2022/08/08 21:30:19;;;;;;;32.30;14.70;;;;;;;15.00;62.19;99434.70;433131;1271;109018;-39
2022/08/08 21:40:30;;;;;;;26.60;12.60;;;;;;;14.80;62.54;99440.91;433013;1271;97034;-40
2022/08/08 21:50:38;;;;;;;22.20;12.10;;;;;;;14.76;63.13;99444.89;432927;1270;108511;-41
2022/08/08 22:00:45;;;;;;;22.80;11.10;;;;;;;14.90;63.66;99443.24;433011;1269;98043;-41
2022/08/08 22:10:51;;;;;;;20.20;9.70;;;;;;;14.96;63.96;99446.02;432806;1270;111339;-41
2022/08/08 22:20:59;;;;;;;17.40;10.40;;;;;;;14.73;64.07;99447.98;432351;1270;109001;-40
2022/08/08 22:31:20;;;;;;;15.90;8.80;;;;;;;14.46;64.46;99447.20;432966;1270;97469;-40
2022/08/08 22:41:28;;;;;;;15.70;8.00;;;;;;;14.20;64.71;99450.20;432996;1271;111079;-40
2022/08/08 23:01:52;;;;;;;15.40;9.40;;;;;;;14.00;65.51;99454.96;432919;1271;97888;-40
2022/08/08 23:12:08;;;;;;;17.70;8.90;;;;;;;13.81;66.07;99452.05;433074;1270;108828;-39
2022/08/08 23:22:34;;;;;;;19.00;8.80;;;;;;;13.82;66.45;99454.77;432914;1271;97529;-39
2022/08/08 23:32:45;;;;;;;16.70;8.60;;;;;;;13.75;66.51;99458.98;433019;1270;111112;-39
2022/08/08 23:42:53;;;;;;;13.10;8.50;;;;;;;13.64;66.87;99465.91;433115;1271;108942;-40
2022/08/08 23:53:00;;;;;;;16.30;9.60;;;;;;;13.43;66.88;99461.54;432868;1271;98075;-41
